createdAt,value
2018-10-16T07:08:59.183Z,13.65
2018-10-16T07:11:27.350Z,13.85
2018-10-16T07:13:55.522Z,14.60
2018-10-16T07:16:23.679Z,15.03
2018-10-16T07:18:51.855Z,14.53
2018-10-16T07:21:20.107Z,14.55
2018-10-16T07:23:48.241Z,13.72
2018-10-16T07:26:16.380Z,14.27
2018-10-16T07:28:44.554Z,14.30
2018-10-16T07:31:12.710Z,14.97
2018-10-16T07:33:40.883Z,15.83
2018-10-16T07:36:09.040Z,14.95
2018-10-16T07:38:37.242Z,15.60
2018-10-16T07:41:05.406Z,17.42
2018-10-16T07:43:33.598Z,16.20
2018-10-16T07:46:01.783Z,16.07
2018-10-16T07:48:30.077Z,17.45
2018-10-16T07:50:58.145Z,17.40
2018-10-16T07:53:26.390Z,17.60
2018-10-16T07:55:54.574Z,18.82
2018-10-16T07:58:22.746Z,17.07
2018-10-16T08:00:50.933Z,17.00
2018-10-16T08:03:19.093Z,16.60
2018-10-16T08:05:47.299Z,17.90
2018-10-16T08:08:15.506Z,15.70
2018-10-16T08:10:43.724Z,16.33
2018-10-16T08:13:11.869Z,16.83
2018-10-16T08:15:40.050Z,16.17
2018-10-16T08:18:08.211Z,16.87
2018-10-16T08:20:36.403Z,17.40
2018-10-16T08:23:04.605Z,17.40
2018-10-16T08:25:32.834Z,16.87
2018-10-16T08:28:01.003Z,17.32
2018-10-16T08:30:29.247Z,16.05
2018-10-16T08:32:57.363Z,15.93
2018-10-16T08:35:25.527Z,15.75
2018-10-16T08:39:08.034Z,13.90
2018-10-16T08:41:43.267Z,12.80
2018-10-16T08:44:23.952Z,14.87
2018-10-16T08:47:03.723Z,13.33
2018-10-16T08:49:43.399Z,13.30
2018-10-16T08:52:11.554Z,12.00
2018-10-16T08:54:39.722Z,11.43
2018-10-16T08:57:07.870Z,11.43
2018-10-16T08:59:36.044Z,12.00
2018-10-16T09:02:04.202Z,11.80
2018-10-16T09:04:32.367Z,11.00
2018-10-16T09:07:00.526Z,10.00
2018-10-16T09:09:28.720Z,9.90
2018-10-16T09:11:56.879Z,9.97
2018-10-16T09:14:25.097Z,9.83
2018-10-16T09:16:53.202Z,9.17
2018-10-16T09:19:21.366Z,10.50
2018-10-16T09:21:49.525Z,9.80
2018-10-16T09:24:17.690Z,10.63
2018-10-16T09:26:45.881Z,10.17
2018-10-16T09:29:14.047Z,9.90
2018-10-16T09:31:42.215Z,9.23
2018-10-16T09:34:10.375Z,9.60
2018-10-16T09:36:38.543Z,10.20
2018-10-16T09:39:08.880Z,10.20
2018-10-16T09:41:37.047Z,10.30
2018-10-16T09:44:05.285Z,10.63
2018-10-16T09:46:33.438Z,10.73
2018-10-16T09:49:01.570Z,10.90
2018-10-16T09:51:29.743Z,10.90
2018-10-16T09:53:57.869Z,10.90
2018-10-16T09:56:26.024Z,9.63
2018-10-16T09:58:54.157Z,10.17
2018-10-16T10:01:27.737Z,8.93
2018-10-16T10:03:55.879Z,10.00
2018-10-16T10:06:24.027Z,9.63
2018-10-16T10:08:52.201Z,10.40
2018-10-16T10:11:20.343Z,9.43
2018-10-16T10:13:48.474Z,9.13
2018-10-16T10:16:16.623Z,9.73
2018-10-16T10:18:44.774Z,10.37
2018-10-16T10:21:12.898Z,9.17
2018-10-16T10:23:41.032Z,9.10
2018-10-16T10:26:09.165Z,9.70
2018-10-16T10:28:37.299Z,8.73
2018-10-16T10:31:05.538Z,8.13
2018-10-16T10:33:33.683Z,9.33
2018-10-16T10:36:01.823Z,9.03
2018-10-16T10:38:29.959Z,8.70
2018-10-16T10:40:58.107Z,9.40
2018-10-16T10:43:26.265Z,7.80
2018-10-16T10:45:54.430Z,8.67
2018-10-16T10:48:22.593Z,8.70
2018-10-16T10:50:50.895Z,7.80
2018-10-16T10:53:18.902Z,8.70
2018-10-16T10:55:47.054Z,8.63
2018-10-16T10:58:15.205Z,9.20
2018-10-16T11:00:43.381Z,9.87
2018-10-16T11:03:11.560Z,8.57
2018-10-16T11:05:39.710Z,8.10
2018-10-16T11:08:07.866Z,8.10
2018-10-16T11:10:36.030Z,8.27
2018-10-16T11:13:04.193Z,8.50
2018-10-16T11:15:32.363Z,9.80
2018-10-16T11:18:00.518Z,8.67
2018-10-16T11:20:28.677Z,9.27
2018-10-16T11:22:56.854Z,8.98
2018-10-16T11:25:25.010Z,9.08
2018-10-16T11:27:53.166Z,7.87
2018-10-16T11:30:21.364Z,9.13
2018-10-16T11:32:49.485Z,8.17
2018-10-16T11:35:17.649Z,7.67
2018-10-16T11:37:45.807Z,7.23
2018-10-16T11:40:13.966Z,7.93
2018-10-16T11:42:42.734Z,8.90
2018-10-16T11:45:10.969Z,7.77
2018-10-16T11:47:39.160Z,7.50
2018-10-16T11:50:08.649Z,7.10
2018-10-16T11:52:36.732Z,7.57
2018-10-16T11:55:06.037Z,6.77
2018-10-16T11:57:34.197Z,7.93
2018-10-16T12:00:02.358Z,8.27
2018-10-16T12:02:30.522Z,7.20
2018-10-16T12:04:58.675Z,7.33
2018-10-16T12:07:26.851Z,7.60
2018-10-16T12:09:54.998Z,7.55
2018-10-16T14:54:52.354Z,6.50
2018-10-16T14:57:20.506Z,5.83
2018-10-16T14:59:48.654Z,5.43
2018-10-16T15:02:16.802Z,5.10
2018-10-16T15:04:45.564Z,6.57
2018-10-16T15:07:13.699Z,5.77
2018-10-16T15:09:41.889Z,6.20
2018-10-16T15:12:09.979Z,6.50
2018-10-16T15:14:38.119Z,5.80
2018-10-16T15:17:06.511Z,6.57
2018-10-16T15:22:02.159Z,5.73
2018-10-16T15:24:30.269Z,6.10
2018-10-16T15:26:58.407Z,5.73
2018-10-16T15:29:26.546Z,5.60
2018-10-16T15:31:54.749Z,6.00
2018-10-16T15:34:22.833Z,5.60
2018-10-16T15:36:50.979Z,5.43
2018-10-16T15:39:19.123Z,5.20
2018-10-16T15:41:47.318Z,5.60
2018-10-16T15:44:15.544Z,6.07
2018-10-16T15:46:43.614Z,5.87
2018-10-16T15:49:11.812Z,6.00
2018-10-16T15:51:39.894Z,6.57
2018-10-16T15:54:08.094Z,6.80
2018-10-16T15:56:36.187Z,6.60
2018-10-16T15:59:04.917Z,6.17
2018-10-16T16:01:33.047Z,6.60
2018-10-16T16:04:01.230Z,7.23
2018-10-16T16:06:29.352Z,7.20
2018-10-16T16:08:57.573Z,7.17
2018-10-16T16:11:25.707Z,7.20
2018-10-16T16:13:53.868Z,7.22
2018-10-16T16:16:22.048Z,7.57
2018-10-16T16:18:50.193Z,7.60
2018-10-16T16:21:18.377Z,8.08
2018-10-16T16:23:46.522Z,8.30
2018-10-16T16:26:14.718Z,9.18
2018-10-16T16:28:42.850Z,8.97
2018-10-16T16:31:11.050Z,9.40
2018-10-16T16:33:39.210Z,7.80
2018-10-16T16:36:07.570Z,8.30
2018-10-16T16:38:35.646Z,8.23
2018-10-16T16:41:05.709Z,7.70
2018-10-16T16:43:33.903Z,7.90
2018-10-16T16:46:02.063Z,8.18
2018-10-16T16:48:30.587Z,8.50
2018-10-16T16:50:58.763Z,8.43
2018-10-16T16:53:26.919Z,8.80
2018-10-16T16:55:55.080Z,9.20
2018-10-16T16:58:23.211Z,9.53
2018-10-16T17:00:51.370Z,8.27
2018-10-16T17:03:19.537Z,9.00
2018-10-16T17:05:47.690Z,9.07
2018-10-16T17:08:15.869Z,10.55
2018-10-16T17:10:44.047Z,10.23
2018-10-16T17:13:12.676Z,9.38
2018-10-16T17:15:40.835Z,9.10
2018-10-16T17:18:09.014Z,8.95
2018-10-16T17:20:37.170Z,9.40
2018-10-16T17:23:05.523Z,10.53
2018-10-16T17:25:33.921Z,8.77
2018-10-16T17:40:19.223Z,8.70
2018-10-16T17:42:47.322Z,10.20
2018-10-16T17:45:16.485Z,10.13
2018-10-16T17:47:44.742Z,10.50
2018-10-16T17:50:14.731Z,10.60
2018-10-16T17:52:42.878Z,10.10
2018-10-16T17:55:11.925Z,9.40
2018-10-16T17:57:40.170Z,9.47
2018-10-16T18:00:10.369Z,9.38
2018-10-16T18:02:38.567Z,9.20
2018-10-16T18:05:06.765Z,9.35
2018-10-16T18:07:34.921Z,9.83
2018-10-16T18:10:03.070Z,9.83
2018-10-16T18:12:31.232Z,10.30
2018-10-16T18:14:59.421Z,10.33
2018-10-16T18:17:27.534Z,10.10
2018-10-16T18:19:55.690Z,9.90
2018-10-16T18:22:23.863Z,10.55
2018-10-16T18:24:52.022Z,9.90
2018-10-16T18:27:20.198Z,9.35
2018-10-16T18:29:48.477Z,9.50
2018-10-16T18:32:16.592Z,9.58
2018-10-16T18:34:44.741Z,9.90
2018-10-16T18:37:12.899Z,9.63
2018-10-16T18:39:41.184Z,10.00
2018-10-16T18:42:09.218Z,9.35
2018-10-16T18:44:37.435Z,9.55
2018-10-16T18:47:05.607Z,9.53
2018-10-16T18:49:33.803Z,9.45
2018-10-16T18:52:01.975Z,10.68
2018-10-16T18:54:30.175Z,9.45
2018-10-16T18:56:58.402Z,9.73
2018-10-16T18:59:26.535Z,9.40
2018-10-16T19:01:54.702Z,9.58
2018-10-16T19:04:22.893Z,9.85
2018-10-16T19:06:51.090Z,9.95
2018-10-16T19:09:19.299Z,9.73
2018-10-16T19:11:47.496Z,10.20
2018-10-16T19:14:15.666Z,9.90
2018-10-16T19:16:43.822Z,9.83
2018-10-16T19:19:12.004Z,10.35
2018-10-16T19:21:40.183Z,11.00
2018-10-16T19:24:08.447Z,11.00
2018-10-16T19:26:36.622Z,10.03
2018-10-16T19:29:04.872Z,10.48
2018-10-16T19:31:33.038Z,11.12
2018-10-16T19:34:01.226Z,10.65
2018-10-16T19:36:29.539Z,10.40
2018-10-16T19:38:57.693Z,11.10
2018-10-16T19:41:25.850Z,10.82
2018-10-16T19:43:54.011Z,11.38
2018-10-16T19:46:22.173Z,11.03
2018-10-16T19:48:50.311Z,10.20
2018-10-16T19:51:18.484Z,9.60
2018-10-16T19:53:46.898Z,10.50
2018-10-16T19:56:15.062Z,9.90
2018-10-16T19:58:43.230Z,10.83
2018-10-16T20:01:11.383Z,10.25
2018-10-16T20:03:39.535Z,10.88
2018-10-16T20:06:07.706Z,10.40
2018-10-16T20:08:35.908Z,9.80
2018-10-16T20:11:04.184Z,10.13
2018-10-16T20:13:32.342Z,10.35
2018-10-16T20:16:00.486Z,9.85
2018-10-16T20:18:28.655Z,10.23
2018-10-16T20:20:56.814Z,10.47
2018-10-16T20:23:24.977Z,10.30
2018-10-16T20:25:53.138Z,10.60
2018-10-16T20:28:21.302Z,9.80
2018-10-16T20:30:49.478Z,11.10
2018-10-16T20:33:17.642Z,10.23
2018-10-16T20:35:45.831Z,9.88
2018-10-16T20:38:13.982Z,10.45
2018-10-16T20:40:42.178Z,10.40
2018-10-16T20:43:10.403Z,10.45
2018-10-16T20:45:38.520Z,10.00
2018-10-16T20:48:06.690Z,10.48
2018-10-16T20:50:34.923Z,9.90
2018-10-16T20:53:03.090Z,9.73
2018-10-16T20:55:31.307Z,10.33
2018-10-16T20:57:59.494Z,8.87
2018-10-16T21:00:27.974Z,9.90
2018-10-16T21:02:56.199Z,10.35
2018-10-16T21:05:24.417Z,10.27
2018-10-16T21:07:52.551Z,10.30
2018-10-16T21:10:20.721Z,10.90
2018-10-16T21:12:48.883Z,9.85
2018-10-16T21:15:17.065Z,10.05
2018-10-16T21:17:45.249Z,10.38
2018-10-16T21:20:13.442Z,11.22
2018-10-16T21:22:41.646Z,9.90
2018-10-16T21:25:10.375Z,10.68
2018-10-16T21:27:38.414Z,10.40
2018-10-16T21:30:08.278Z,10.90
2018-10-16T21:32:36.451Z,10.55
2018-10-16T21:35:05.443Z,9.58
2018-10-16T21:37:33.593Z,10.80
2018-10-16T21:40:01.774Z,10.65
2018-10-16T21:42:29.954Z,11.08
2018-10-16T21:44:58.154Z,10.82
2018-10-16T21:47:26.330Z,11.40
2018-10-16T21:49:54.566Z,11.10
2018-10-16T21:52:23.731Z,10.80
2018-10-16T21:54:51.945Z,11.18
2018-10-16T21:57:20.122Z,10.82
2018-10-16T21:59:48.289Z,11.55
2018-10-16T22:02:21.891Z,10.60
2018-10-16T22:04:50.070Z,11.00
2018-10-16T22:07:18.261Z,11.12
2018-10-16T22:09:46.515Z,11.22
2018-10-16T22:12:14.734Z,10.82
2018-10-16T22:14:42.902Z,10.90
2018-10-16T22:17:11.134Z,12.10
2018-10-16T22:19:39.266Z,10.53
2018-10-16T22:22:07.434Z,10.25
2018-10-16T22:24:36.341Z,10.93
2018-10-16T22:27:04.595Z,11.70
2018-10-16T22:29:32.812Z,10.80
2018-10-16T22:32:00.978Z,10.60
2018-10-16T22:34:29.158Z,10.35
2018-10-16T22:36:57.354Z,10.48
2018-10-16T22:39:25.538Z,10.68
2018-10-16T22:41:53.845Z,12.00
2018-10-16T22:44:22.022Z,11.40
2018-10-16T22:46:50.206Z,11.80
2018-10-16T22:49:18.402Z,11.97
2018-10-16T22:51:46.581Z,11.73
2018-10-16T22:54:14.723Z,10.90
2018-10-16T22:56:43.002Z,11.40
2018-10-16T22:59:11.257Z,11.50
2018-10-16T23:01:39.314Z,11.30
2018-10-16T23:04:07.488Z,10.40
2018-10-16T23:06:35.674Z,11.27
2018-10-16T23:09:04.834Z,10.30
2018-10-16T23:11:33.046Z,11.80
2018-10-16T23:14:01.139Z,11.90
2018-10-16T23:16:29.352Z,11.83
2018-10-16T23:18:57.567Z,11.20
2018-10-16T23:21:25.720Z,11.88
2018-10-16T23:23:53.898Z,10.95
2018-10-16T23:26:22.107Z,11.25
2018-10-16T23:28:50.282Z,11.43
2018-10-16T23:31:18.442Z,11.88
2018-10-16T23:33:46.590Z,10.90
2018-10-16T23:36:14.738Z,11.80
2018-10-16T23:38:42.885Z,11.43
2018-10-16T23:41:11.066Z,11.65
2018-10-16T23:43:39.321Z,11.87
2018-10-16T23:46:07.814Z,12.10
2018-10-16T23:48:36.314Z,11.83
2018-10-16T23:51:04.789Z,12.37
2018-10-16T23:53:32.953Z,11.85
2018-10-16T23:56:01.166Z,12.00
2018-10-16T23:58:29.339Z,12.28
